createdAt,value
2022-09-06T04:03:00.993Z,4.95
2022-09-06T04:05:33.733Z,4.38
2022-09-06T04:08:05.828Z,4.30
2022-09-06T04:10:37.880Z,4.25
2022-09-06T04:13:09.932Z,4.55
2022-09-06T04:15:41.979Z,4.90
2022-09-06T04:18:15.425Z,4.47
2022-09-06T04:20:48.280Z,4.70
2022-09-06T04:23:20.494Z,4.90
2022-09-06T04:25:53.052Z,4.90
2022-09-06T04:28:25.570Z,4.82
2022-09-06T04:31:01.983Z,4.40
2022-09-06T04:33:37.604Z,5.18
2022-09-06T04:36:09.979Z,4.55
2022-09-06T04:38:42.456Z,4.70
2022-09-06T04:41:17.842Z,4.90
2022-09-06T04:43:49.903Z,5.05
2022-09-06T04:46:22.432Z,4.82
2022-09-06T04:48:56.251Z,4.57
2022-09-06T04:51:28.340Z,5.30
2022-09-06T04:54:00.416Z,4.55
2022-09-06T04:56:32.471Z,5.32
2022-09-06T04:59:04.522Z,5.20
2022-09-06T05:01:36.586Z,5.40
2022-09-06T05:04:09.997Z,5.30
2022-09-06T05:06:42.041Z,5.45
2022-09-06T05:09:14.111Z,5.63
2022-09-06T05:11:46.819Z,5.05
2022-09-06T05:14:18.867Z,5.00
2022-09-06T05:16:50.956Z,5.55
2022-09-06T05:19:25.443Z,5.05
2022-09-06T05:21:57.507Z,5.00
2022-09-06T05:24:29.564Z,5.22
2022-09-06T05:27:02.069Z,4.18
2022-09-06T05:29:34.165Z,4.35
2022-09-06T05:32:06.381Z,4.22
2022-09-06T05:34:39.841Z,3.95
2022-09-06T05:37:11.890Z,4.30
2022-09-06T05:39:44.016Z,3.80
2022-09-06T05:42:19.306Z,3.65
2022-09-06T05:44:51.568Z,3.60
2022-09-06T05:47:23.619Z,3.30
2022-09-06T05:49:57.024Z,2.90
2022-09-06T05:52:29.081Z,3.25
2022-09-06T05:55:01.203Z,3.30
2022-09-06T05:57:33.303Z,3.10
2022-09-06T06:00:05.647Z,3.08
2022-09-06T06:02:37.810Z,2.95
2022-09-06T06:05:11.259Z,3.10
2022-09-06T06:07:43.314Z,3.30
2022-09-06T06:10:15.511Z,2.60
2022-09-06T06:12:47.560Z,2.85
2022-09-06T06:15:19.587Z,2.90
2022-09-06T06:17:51.641Z,3.00
2022-09-06T06:20:25.103Z,2.92
2022-09-06T06:22:57.162Z,2.90
2022-09-06T06:25:29.210Z,2.92
2022-09-06T06:28:01.264Z,2.75
2022-09-06T06:30:33.320Z,2.83
2022-09-06T06:33:05.388Z,3.25
2022-09-06T06:35:40.211Z,2.80
2022-09-06T06:38:12.354Z,2.70
2022-09-06T06:40:45.843Z,3.22
2022-09-06T06:43:17.914Z,2.90
2022-09-06T06:45:50.039Z,2.55
2022-09-06T06:48:22.214Z,2.60
2022-09-06T06:50:55.668Z,3.33
2022-09-06T06:53:27.719Z,2.65
2022-09-06T06:55:59.780Z,2.95
2022-09-06T06:58:31.835Z,2.60
2022-09-06T07:01:04.002Z,2.58
2022-09-06T07:03:35.782Z,2.63
2022-09-06T07:08:41.902Z,2.30
2022-09-06T07:11:15.399Z,2.13
2022-09-06T07:13:47.097Z,2.20
2022-09-06T07:16:19.767Z,1.92
2022-09-06T07:18:52.245Z,2.15
2022-09-06T07:21:40.817Z,2.00
2022-09-06T07:24:12.525Z,1.90
2022-09-06T07:29:35.889Z,2.30
2022-09-06T07:32:10.648Z,2.10
2022-09-06T07:34:42.595Z,2.00
2022-09-06T07:37:15.673Z,2.28
2022-09-06T07:39:47.390Z,2.22
2022-09-06T07:42:19.480Z,1.92
2022-09-06T07:44:51.157Z,2.10
2022-09-06T07:53:10.105Z,2.20
2022-09-06T07:55:45.987Z,2.15
2022-09-06T07:58:18.034Z,1.77
2022-09-06T08:00:50.109Z,1.85
2022-09-06T08:03:22.283Z,2.17
2022-09-06T08:06:10.289Z,2.35
2022-09-06T08:08:59.756Z,1.80
2022-09-06T08:11:32.367Z,1.95
2022-09-06T08:14:04.787Z,1.75
2022-09-06T08:16:37.142Z,1.63
2022-09-06T08:19:09.256Z,1.73
2022-09-06T08:21:41.303Z,1.80
2022-09-06T08:24:14.756Z,1.63
2022-09-06T08:26:46.789Z,1.70
2022-09-06T08:29:18.860Z,1.90
2022-09-06T08:31:50.959Z,1.88
2022-09-06T08:34:23.126Z,1.65
2022-09-06T08:36:55.195Z,1.73
2022-09-06T08:39:28.615Z,1.55
2022-09-06T08:42:01.219Z,1.35
2022-09-06T08:47:25.517Z,1.48
2022-09-06T08:49:58.475Z,1.50
2022-09-06T08:52:41.791Z,1.80
2022-09-06T08:55:22.173Z,1.67
2022-09-06T08:58:00.762Z,1.60
2022-09-06T09:00:32.908Z,1.70
2022-09-06T09:03:06.393Z,1.33
2022-09-06T09:05:38.924Z,1.95
2022-09-06T09:08:14.580Z,1.60
2022-09-06T09:10:48.261Z,1.50
2022-09-06T09:13:22.941Z,2.90
2022-09-06T09:15:55.055Z,3.20
2022-09-06T09:18:27.784Z,2.15
2022-09-06T09:20:59.906Z,1.90
2022-09-06T09:23:31.966Z,1.70
2022-09-06T09:26:05.775Z,2.03
2022-09-06T09:28:37.837Z,1.73
2022-09-06T09:31:09.969Z,1.50
2022-09-06T09:33:42.100Z,1.40
2022-09-06T09:36:14.452Z,1.58
2022-09-06T09:38:46.529Z,1.45
2022-09-06T09:41:27.268Z,1.50
2022-09-06T09:44:04.411Z,1.60
2022-09-06T09:46:37.011Z,1.50
2022-09-06T09:49:09.479Z,1.60
2022-09-06T09:51:41.804Z,1.48
2022-09-06T09:54:14.144Z,1.33
2022-09-06T09:56:48.791Z,1.65
2022-09-06T09:59:22.854Z,1.33
2022-09-06T10:01:55.801Z,1.60
2022-09-06T10:04:47.035Z,1.35
2022-09-06T10:07:19.741Z,1.27
2022-09-06T10:09:57.717Z,1.02
2022-09-06T10:12:31.941Z,1.13
2022-09-06T10:15:07.074Z,1.20
2022-09-06T10:17:48.230Z,1.30
2022-09-06T10:20:32.662Z,1.25
2022-09-06T10:23:06.641Z,1.13
2022-09-06T10:25:40.173Z,1.13
2022-09-06T10:28:35.980Z,1.40
2022-09-06T10:31:53.055Z,1.55
2022-09-06T10:34:44.684Z,1.25
2022-09-06T10:37:28.931Z,1.48
2022-09-06T10:40:03.089Z,1.40
2022-09-06T10:42:39.179Z,1.48
2022-09-06T10:45:20.693Z,1.40
2022-09-06T10:47:56.742Z,1.20
2022-09-06T10:50:32.935Z,1.13
2022-09-06T10:53:07.288Z,1.50
2022-09-06T10:55:39.725Z,1.48
2022-09-06T10:58:19.360Z,1.40
2022-09-06T11:00:53.165Z,1.40
2022-09-06T11:06:20.081Z,1.30
2022-09-06T11:08:57.816Z,1.20
2022-09-06T11:11:31.517Z,1.63
2022-09-06T11:14:05.713Z,1.40
2022-09-06T11:16:40.229Z,1.27
2022-09-06T11:19:12.979Z,1.20
2022-09-06T11:21:51.562Z,1.40
2022-09-06T11:24:25.645Z,1.38
2022-09-06T11:26:59.641Z,1.10
2022-09-06T11:29:31.679Z,1.60
2022-09-06T11:32:21.074Z,1.33
2022-09-06T11:34:53.805Z,1.30
2022-09-06T11:37:26.573Z,1.50
2022-09-06T11:43:11.392Z,1.50
2022-09-06T11:45:44.717Z,2.08
2022-09-06T11:48:31.564Z,1.45
2022-09-06T11:51:04.689Z,1.50
2022-09-06T11:53:57.027Z,1.30
2022-09-06T11:56:29.596Z,1.83
2022-09-06T11:59:02.583Z,1.60
2022-09-06T12:01:35.935Z,1.65
2022-09-06T12:04:10.500Z,1.60
2022-09-06T12:06:42.769Z,1.30
2022-09-06T12:09:27.415Z,1.38
2022-09-06T12:11:59.619Z,1.42
2022-09-06T12:14:35.798Z,1.63
2022-09-06T12:17:18.199Z,1.40
2022-09-06T12:19:52.940Z,1.75
2022-09-06T12:22:43.489Z,1.73
2022-09-06T12:25:16.799Z,1.85
2022-09-06T12:27:51.956Z,1.90
2022-09-06T12:30:31.379Z,1.30
2022-09-06T12:33:03.531Z,1.77
2022-09-06T12:38:29.682Z,1.67
2022-09-06T12:41:01.857Z,1.42
2022-09-06T12:43:33.922Z,1.90
2022-09-06T12:46:06.043Z,1.80
2022-09-06T12:48:38.152Z,1.42
2022-09-06T12:51:12.048Z,1.50
2022-09-06T12:53:50.391Z,1.50
2022-09-06T12:56:22.838Z,1.65
2022-09-06T12:59:09.792Z,1.60
2022-09-06T13:01:42.271Z,1.75
2022-09-06T13:04:15.248Z,1.40
2022-09-06T13:06:48.641Z,1.92
2022-09-06T13:09:20.699Z,1.17
2022-09-06T13:11:52.749Z,1.77
2022-09-06T13:14:25.511Z,1.75
2022-09-06T13:16:57.562Z,1.73
2022-09-06T13:19:30.688Z,1.55
2022-09-06T13:22:04.817Z,1.50
2022-09-06T13:24:46.360Z,1.23
2022-09-06T13:27:33.483Z,1.60
2022-09-06T13:30:06.574Z,1.90
2022-09-06T13:32:46.039Z,1.60
2022-09-06T13:35:23.015Z,1.40
2022-09-06T13:38:09.947Z,1.60
2022-09-06T13:43:40.631Z,1.42
2022-09-06T13:46:12.771Z,1.25
2022-09-06T13:48:45.202Z,1.30
2022-09-06T13:51:17.327Z,1.65
2022-09-06T13:53:49.497Z,1.40
2022-09-06T13:56:22.901Z,1.30
2022-09-06T13:58:54.970Z,1.38
2022-09-06T14:01:27.041Z,1.23
2022-09-06T14:03:59.134Z,1.45
2022-09-06T14:06:36.091Z,1.52
2022-09-06T14:09:09.435Z,1.25
2022-09-06T14:11:48.038Z,1.50
2022-09-06T14:14:20.529Z,1.60
2022-09-06T14:16:52.575Z,1.60
2022-09-06T14:19:24.646Z,2.35
2022-09-06T14:21:56.680Z,3.38
2022-09-06T14:24:28.742Z,1.70
2022-09-06T14:27:02.138Z,1.60
2022-09-06T14:29:34.215Z,1.60
2022-09-06T14:32:06.392Z,1.60
2022-09-06T14:34:38.451Z,1.33
2022-09-06T14:37:13.427Z,1.27
2022-09-06T14:39:45.517Z,1.33
2022-09-06T14:42:18.584Z,1.00
2022-09-06T14:44:50.305Z,1.52
2022-09-06T14:47:22.034Z,1.25
2022-09-06T14:49:53.728Z,1.33
2022-09-06T14:52:25.403Z,1.20
2022-09-06T14:54:57.108Z,1.30
2022-09-06T14:57:30.487Z,1.33
2022-09-06T15:00:02.769Z,1.13
2022-09-06T15:02:34.884Z,1.23
2022-09-06T15:05:07.084Z,1.35
2022-09-06T15:07:39.149Z,1.20
2022-09-06T15:10:11.186Z,1.30
2022-09-06T15:12:44.575Z,1.15
2022-09-06T15:15:16.607Z,1.15
2022-09-06T15:17:48.661Z,1.20
2022-09-06T15:20:20.696Z,1.15
2022-09-06T15:23:03.853Z,1.35
2022-09-06T15:25:48.324Z,1.20
2022-09-06T15:28:21.738Z,1.10
2022-09-06T15:30:53.804Z,1.30
2022-09-06T15:33:28.941Z,1.20
2022-09-06T15:36:01.044Z,1.23
2022-09-06T15:38:33.123Z,1.30
2022-09-06T15:41:08.119Z,1.13
2022-09-06T15:43:43.972Z,1.13
2022-09-06T15:46:16.361Z,1.13
2022-09-06T15:48:48.796Z,1.08
2022-09-06T15:51:20.582Z,1.05
2022-09-06T15:53:52.642Z,1.20
2022-09-06T15:56:24.319Z,1.10
2022-09-06T15:58:57.729Z,1.25
2022-09-06T16:01:29.547Z,1.00
2022-09-06T16:04:01.631Z,0.90
2022-09-06T16:06:34.609Z,1.25
2022-09-06T16:09:07.304Z,1.00
2022-09-06T16:11:39.374Z,1.00
2022-09-06T16:14:13.328Z,1.20
2022-09-06T16:16:45.196Z,1.20
2022-09-06T16:19:16.928Z,1.10
2022-09-06T16:21:48.634Z,0.90
2022-09-06T16:24:20.700Z,0.90
2022-09-06T16:26:52.421Z,1.00
2022-09-06T16:29:25.531Z,1.02
2022-09-06T16:31:57.600Z,1.05
2022-09-06T16:34:29.634Z,0.98
2022-09-06T16:37:01.357Z,1.20
2022-09-06T16:39:33.074Z,1.00
2022-09-06T16:42:05.029Z,1.65
2022-09-06T16:44:38.698Z,1.15
2022-09-06T16:47:14.693Z,1.20
2022-09-06T16:49:48.457Z,1.05
2022-09-06T16:52:20.197Z,1.10
2022-09-06T16:54:51.901Z,1.10
2022-09-06T16:57:23.628Z,1.00
2022-09-06T16:59:56.674Z,1.20
2022-09-06T17:02:28.480Z,1.30
2022-09-06T17:05:00.248Z,1.20
2022-09-06T17:07:31.970Z,1.70
2022-09-06T17:10:04.209Z,1.40
2022-09-06T17:12:35.912Z,1.73
2022-09-06T17:15:10.517Z,1.67
2022-09-06T17:17:42.216Z,1.50
2022-09-06T17:20:13.975Z,1.52
2022-09-06T17:22:49.319Z,1.60
2022-09-06T17:25:21.099Z,2.00
2022-09-06T17:27:52.801Z,1.95
2022-09-06T17:30:25.913Z,2.10
2022-09-06T17:32:57.608Z,1.88
2022-09-06T17:35:29.332Z,1.83
2022-09-06T17:38:01.027Z,1.52
2022-09-06T17:40:32.748Z,1.42
2022-09-06T17:43:04.470Z,1.40
2022-09-06T17:45:38.100Z,1.50
2022-09-06T17:48:09.826Z,1.67
2022-09-06T17:50:41.516Z,1.50
2022-09-06T17:53:13.237Z,1.50
2022-09-06T17:55:44.999Z,1.63
2022-09-06T17:58:16.721Z,1.50
2022-09-06T18:00:50.181Z,1.33
2022-09-06T18:03:21.901Z,1.25
2022-09-06T18:05:53.611Z,1.27
2022-09-06T18:08:25.882Z,2.33
2022-09-06T18:10:57.635Z,2.15
2022-09-06T18:13:29.321Z,1.95
2022-09-06T18:16:02.704Z,1.92
2022-09-06T18:18:34.725Z,2.40
2022-09-06T18:21:06.659Z,2.67
2022-09-06T18:23:38.343Z,2.70
2022-09-06T18:26:10.185Z,2.78
2022-09-06T18:28:41.907Z,2.75
2022-09-06T18:31:16.409Z,2.47
2022-09-06T18:33:48.175Z,3.10
2022-09-06T18:36:19.910Z,2.72
2022-09-06T18:38:51.639Z,2.78
2022-09-06T18:41:24.369Z,2.78
2022-09-06T18:43:56.367Z,2.83
2022-09-06T18:46:29.612Z,3.03
2022-09-06T18:49:01.399Z,3.00
2022-09-06T18:51:33.286Z,2.95
2022-09-06T18:54:05.213Z,2.40
2022-09-06T18:56:36.929Z,2.50
2022-09-06T18:59:08.671Z,2.33
2022-09-06T19:01:41.846Z,1.70
2022-09-06T19:04:13.619Z,2.03
2022-09-06T19:06:45.311Z,1.90
2022-09-06T19:09:17.097Z,3.13
2022-09-06T19:11:48.793Z,2.58
2022-09-06T19:14:20.559Z,2.53
2022-09-06T19:16:53.630Z,2.00
2022-09-06T19:19:25.432Z,2.40
2022-09-06T19:21:57.414Z,2.17
2022-09-06T19:24:29.095Z,2.17
2022-09-06T19:27:00.792Z,1.73
2022-09-06T19:29:32.479Z,2.25
2022-09-06T19:32:05.777Z,3.13
2022-09-06T19:34:37.539Z,2.20
2022-09-06T19:37:09.241Z,1.88
2022-09-06T19:39:40.945Z,1.90
2022-09-06T19:42:12.668Z,1.70
2022-09-06T19:44:44.382Z,1.90
2022-09-06T19:47:17.468Z,1.70
2022-09-06T19:49:49.170Z,1.80
2022-09-06T19:52:20.870Z,2.17
2022-09-06T19:54:52.548Z,2.42
2022-09-06T19:57:24.350Z,2.60
2022-09-06T19:59:56.028Z,2.25
2022-09-06T20:02:29.124Z,2.05
2022-09-06T20:05:00.833Z,1.98
2022-09-06T20:07:32.540Z,1.92
2022-09-06T20:10:05.125Z,1.60
2022-09-06T20:12:36.824Z,1.90
2022-09-06T20:15:09.772Z,1.88
2022-09-06T20:17:42.832Z,1.70
2022-09-06T20:20:14.698Z,1.70
2022-09-06T20:22:46.462Z,1.60
2022-09-06T20:25:18.167Z,1.77
2022-09-06T20:27:49.866Z,1.90
2022-09-06T20:30:21.557Z,1.63
2022-09-06T20:32:54.625Z,1.90
2022-09-06T20:35:26.349Z,2.00
2022-09-06T20:37:58.108Z,1.63
2022-09-06T20:40:29.863Z,1.55
2022-09-06T20:43:01.561Z,2.17
2022-09-06T20:45:33.409Z,2.10
2022-09-06T20:48:06.460Z,2.00
2022-09-06T20:50:38.164Z,2.22
2022-09-06T20:53:09.879Z,1.90
2022-09-06T20:55:41.556Z,1.60
2022-09-06T20:58:13.283Z,1.35
2022-09-06T21:00:45.083Z,1.50
2022-09-06T21:03:18.204Z,1.55
2022-09-06T21:05:49.947Z,1.80
2022-09-06T21:08:21.618Z,1.73
2022-09-06T21:10:58.581Z,1.40
2022-09-06T21:13:30.314Z,1.80
2022-09-06T21:16:02.550Z,1.60
2022-09-06T21:18:35.680Z,1.30
2022-09-06T21:21:07.707Z,1.60
2022-09-06T21:23:39.442Z,1.85
2022-09-06T21:26:11.788Z,1.80
2022-09-06T21:28:44.075Z,2.08
2022-09-06T21:31:18.794Z,1.40
2022-09-06T21:33:52.636Z,1.20
2022-09-06T21:36:25.111Z,1.50
2022-09-06T21:38:57.725Z,1.30
2022-09-06T21:41:29.675Z,1.40
2022-09-06T21:44:01.916Z,1.33
2022-09-06T21:46:36.678Z,1.40
2022-09-06T21:49:10.909Z,1.42
2022-09-06T21:51:42.838Z,1.48
2022-09-06T21:54:14.540Z,1.45
2022-09-06T21:56:46.253Z,1.35
2022-09-06T21:59:18.011Z,1.40
